createdAt,value
2018-04-15T00:00:57.235Z,100074.73
2018-04-15T00:03:23.534Z,100078.31
2018-04-15T00:05:49.865Z,100067.70
2018-04-15T00:08:16.130Z,100071.69
2018-04-15T00:10:42.541Z,100066.95
2018-04-15T00:13:09.624Z,100060.95
2018-04-15T00:15:35.938Z,100064.39
2018-04-15T00:18:02.251Z,100058.66
2018-04-15T00:20:29.294Z,100056.50
2018-04-15T00:22:56.358Z,100053.30
2018-04-15T00:25:22.658Z,100049.52
2018-04-15T00:27:48.944Z,100055.56
2018-04-15T00:30:16.113Z,100045.34
2018-04-15T00:32:42.393Z,100037.82
2018-04-15T00:35:09.407Z,100033.27
2018-04-15T00:37:35.722Z,100034.27
2018-04-15T00:40:02.051Z,100023.14
2018-04-15T00:42:28.307Z,100020.70
2018-04-15T00:44:54.591Z,100017.61
2018-04-15T00:47:20.873Z,100017.94
2018-04-15T00:49:47.179Z,100010.58
2018-04-15T00:52:14.212Z,100014.39
2018-04-15T00:54:40.473Z,100015.47
2018-04-15T00:57:06.755Z,100009.39
2018-04-15T00:59:33.099Z,100015.06
2018-04-15T01:01:59.359Z,100016.18
2018-04-15T01:04:25.629Z,100008.66
2018-04-15T01:06:52.665Z,100009.50
2018-04-15T01:09:19.763Z,100014.86
2018-04-15T01:11:46.105Z,100006.29
2018-04-15T01:14:12.366Z,100009.45
2018-04-15T01:16:38.679Z,100000.57
2018-04-15T01:19:04.989Z,100003.58
2018-04-15T01:21:31.270Z,99990.23
2018-04-15T01:23:58.308Z,99991.49
2018-04-15T01:26:25.315Z,99999.11
2018-04-15T01:28:51.662Z,99997.80
2018-04-15T01:31:18.030Z,99986.88
2018-04-15T01:33:45.089Z,99979.63
2018-04-15T01:36:11.451Z,99984.73
2018-04-15T01:38:37.763Z,99985.34
2018-04-15T01:41:04.080Z,99979.95
2018-04-15T01:43:31.075Z,99979.20
2018-04-15T01:45:57.381Z,99976.94
2018-04-15T01:48:23.665Z,99977.20
2018-04-15T01:50:49.972Z,99975.55
2018-04-15T01:53:16.987Z,99982.77
2018-04-15T01:55:43.256Z,99973.34
2018-04-15T01:58:09.571Z,99972.19
2018-04-15T02:00:35.836Z,99968.93
2018-04-15T02:03:02.894Z,99968.31
2018-04-15T02:05:29.906Z,99971.00
2018-04-15T02:07:56.200Z,99968.27
2018-04-15T02:10:22.506Z,99971.19
2018-04-15T02:12:49.612Z,99969.40
2018-04-15T02:15:15.920Z,99964.41
2018-04-15T02:17:42.208Z,99961.84
2018-04-15T02:20:09.266Z,99961.84
2018-04-15T02:22:35.534Z,99963.01
2018-04-15T02:25:01.822Z,99959.49
2018-04-15T02:27:28.103Z,99957.29
2018-04-15T02:29:54.407Z,99953.45
2018-04-15T02:32:20.707Z,99947.68
2018-04-15T02:34:47.755Z,99936.71
2018-04-15T02:37:14.800Z,99947.80
2018-04-15T02:39:41.852Z,99940.76
2018-04-15T02:42:08.928Z,99932.72
2018-04-15T02:44:35.215Z,99932.83
2018-04-15T02:47:01.494Z,99927.27
2018-04-15T02:49:27.803Z,99928.17
2018-04-15T02:51:54.059Z,99920.97
2018-04-15T02:54:20.391Z,99916.36
2018-04-15T02:56:46.754Z,99904.10
2018-04-15T02:59:13.038Z,99896.23
2018-04-15T03:01:39.368Z,99899.75
2018-04-15T03:04:05.696Z,99898.30
2018-04-15T03:06:32.012Z,99904.30
2018-04-15T03:08:59.081Z,99899.50
2018-04-15T03:11:25.367Z,99901.04
2018-04-15T03:13:51.653Z,99898.97
2018-04-15T03:16:17.934Z,99900.98
2018-04-15T03:18:44.224Z,99899.42
2018-04-15T03:21:10.491Z,99892.72
2018-04-15T03:23:36.799Z,99890.98
2018-04-15T03:26:03.084Z,99886.63
2018-04-15T03:28:29.552Z,99888.05
2018-04-15T03:30:56.364Z,99884.01
2018-04-15T03:33:22.661Z,99885.80
2018-04-15T03:35:48.935Z,99896.23
2018-04-15T03:38:15.283Z,99895.22
2018-04-15T03:40:41.547Z,99898.23
2018-04-15T03:43:07.852Z,99895.91
2018-04-15T03:45:34.137Z,99890.66
2018-04-15T03:48:01.135Z,99886.89
2018-04-15T03:50:27.436Z,99884.05
2018-04-15T03:52:53.716Z,99882.32
2018-04-15T03:55:19.981Z,99876.07
2018-04-15T03:57:46.269Z,99867.28
2018-04-15T04:00:12.605Z,99873.61
2018-04-15T04:02:38.866Z,99874.49
2018-04-15T04:05:05.158Z,99871.08
2018-04-15T04:07:31.424Z,99879.41
2018-04-15T04:09:58.450Z,99888.84
2018-04-15T04:12:24.774Z,99891.32
2018-04-15T04:14:51.173Z,99889.91
2018-04-15T04:17:17.458Z,99891.58
2018-04-15T04:20:02.947Z,99893.30
2018-04-15T04:22:48.775Z,99898.27
2018-04-15T04:25:33.765Z,99904.59
2018-04-15T04:28:01.255Z,99905.02
2018-04-15T04:30:28.253Z,99901.56
2018-04-15T04:32:54.630Z,99905.03
2018-04-15T04:35:21.640Z,99899.75
2018-04-15T04:37:47.946Z,99896.25
2018-04-15T04:40:14.243Z,99898.74
2018-04-15T04:42:40.556Z,99892.03
2018-04-15T04:45:06.879Z,99897.17
2018-04-15T04:47:33.167Z,99900.17
2018-04-15T04:50:00.448Z,99897.02
2018-04-15T04:52:26.750Z,99889.53
2018-04-15T04:54:53.043Z,99885.23
2018-04-15T04:57:20.119Z,99884.52
2018-04-15T04:59:46.424Z,99877.42
2018-04-15T05:02:13.440Z,99876.69
2018-04-15T05:04:39.839Z,99874.20
2018-04-15T05:07:06.119Z,99870.52
2018-04-15T05:09:32.436Z,99874.05
2018-04-15T05:11:58.827Z,99867.44
2018-04-15T05:14:25.185Z,99867.25
2018-04-15T05:16:51.483Z,99861.77
2018-04-15T05:19:17.805Z,99860.91
2018-04-15T05:21:44.953Z,99856.97
2018-04-15T05:24:11.954Z,99849.98
2018-04-15T05:26:38.234Z,99844.70
2018-04-15T05:29:04.500Z,99847.51
2018-04-15T05:31:30.795Z,99850.25
2018-04-15T05:33:57.846Z,99852.18
2018-04-15T05:36:25.147Z,99849.78
2018-04-15T05:38:51.466Z,99851.64
2018-04-15T05:41:17.743Z,99846.48
2018-04-15T05:43:44.782Z,99843.38
2018-04-15T05:46:11.865Z,99839.63
2018-04-15T05:48:38.195Z,99834.66
2018-04-15T05:51:04.538Z,99828.48
2018-04-15T05:53:31.876Z,99826.77
2018-04-15T05:55:58.219Z,99822.43
2018-04-15T05:58:24.525Z,99819.22
2018-04-15T06:00:51.586Z,99813.16
2018-04-15T06:03:17.953Z,99810.14
2018-04-15T06:05:44.243Z,99802.67
2018-04-15T06:08:11.576Z,99804.38
2018-04-15T06:10:37.962Z,99788.64
2018-04-15T06:13:04.294Z,99779.70
2018-04-15T06:15:30.623Z,99758.17
2018-04-15T06:17:56.927Z,99762.70
2018-04-15T06:20:23.219Z,99754.09
2018-04-15T06:22:49.553Z,99757.03
2018-04-15T06:25:15.884Z,99752.62
2018-04-15T06:27:42.189Z,99743.63
2018-04-15T06:30:08.478Z,99734.63
2018-04-15T06:32:34.843Z,99729.80
2018-04-15T06:35:01.118Z,99727.71
2018-04-15T06:37:28.174Z,99726.31
2018-04-15T06:39:55.196Z,99723.24
2018-04-15T06:42:21.489Z,99720.13
2018-04-15T06:44:47.744Z,99710.09
2018-04-15T06:47:14.067Z,99707.05
2018-04-15T06:49:40.351Z,99719.14
2018-04-15T06:52:07.434Z,99708.55
2018-04-15T06:54:33.717Z,99713.01
2018-04-15T06:57:00.741Z,99720.48
2018-04-15T06:59:27.141Z,99721.09
2018-04-15T07:01:53.418Z,99727.53
2018-04-15T07:04:19.729Z,99726.44
2018-04-15T07:06:46.011Z,99738.19
2018-04-15T07:09:13.250Z,99736.27
2018-04-15T07:11:40.293Z,99723.38
2018-04-15T07:14:07.384Z,99728.63
2018-04-15T07:16:34.109Z,99728.48
2018-04-15T07:19:01.237Z,99729.66
2018-04-15T07:21:28.304Z,99713.92
2018-04-15T07:23:54.619Z,99705.50
2018-04-15T07:26:21.735Z,99704.45
2018-04-15T07:28:48.057Z,99693.97
2018-04-15T07:31:14.402Z,99689.35
2018-04-15T07:33:40.696Z,99683.00
2018-04-15T07:36:07.015Z,99680.73
2018-04-15T07:38:33.368Z,99682.95
2018-04-15T07:40:59.743Z,99678.29
2018-04-15T07:43:26.870Z,99680.87
2018-04-15T07:45:53.160Z,99680.63
2018-04-15T07:48:19.468Z,99681.69
2018-04-15T07:50:46.511Z,99670.16
2018-04-15T07:53:13.577Z,99672.95
2018-04-15T07:55:39.833Z,99664.50
2018-04-15T07:58:06.111Z,99664.03
2018-04-15T08:00:33.165Z,99663.47
2018-04-15T08:03:00.218Z,99659.22
2018-04-15T08:05:26.534Z,99657.41
2018-04-15T08:07:52.890Z,99659.07
2018-04-15T08:10:19.217Z,99657.77
2018-04-15T08:12:46.249Z,99654.03
2018-04-15T08:15:13.394Z,99653.41
2018-04-15T08:17:40.414Z,99661.96
2018-04-15T08:20:06.695Z,99649.45
2018-04-15T08:22:32.996Z,99647.91
2018-04-15T08:24:59.351Z,99642.20
2018-04-15T08:27:26.454Z,99639.75
2018-04-15T08:29:53.594Z,99646.23
2018-04-15T08:32:19.933Z,99646.47
2018-04-15T08:34:46.255Z,99643.48
2018-04-15T08:37:12.553Z,99640.11
2018-04-15T08:39:38.899Z,99631.45
2018-04-15T08:42:05.231Z,99629.81
2018-04-15T08:44:31.527Z,99633.52
2018-04-15T08:46:58.572Z,99634.50
2018-04-15T08:49:25.610Z,99630.46
2018-04-15T08:51:51.928Z,99613.58
2018-04-15T08:54:18.249Z,99609.07
2018-04-15T08:56:44.564Z,99612.59
2018-04-15T08:59:10.857Z,99612.54
2018-04-15T09:01:37.478Z,99612.75
2018-04-15T09:04:03.800Z,99606.45
2018-04-15T09:06:30.228Z,99602.07
2018-04-15T09:08:57.363Z,99586.99
2018-04-15T09:11:23.663Z,99592.19
2018-04-15T09:13:50.217Z,99584.75
2018-04-15T09:16:16.703Z,99589.43
2018-04-15T09:18:43.837Z,99579.98
2018-04-15T09:21:10.129Z,99581.66
2018-04-15T09:23:36.488Z,99578.70
2018-04-15T09:26:02.842Z,99582.98
2018-04-15T09:28:29.992Z,99581.89
2018-04-15T09:31:03.263Z,99583.02
2018-04-15T09:33:29.557Z,99575.27
2018-04-15T09:35:55.872Z,99564.60
2018-04-15T09:38:22.150Z,99566.41
2018-04-15T09:40:48.513Z,99569.72
2018-04-15T09:43:15.659Z,99575.20
2018-04-15T09:45:42.705Z,99571.52
2018-04-15T09:48:09.773Z,99573.20
2018-04-15T09:50:36.064Z,99567.67
2018-04-15T09:53:02.360Z,99569.15
2018-04-15T09:55:28.658Z,99568.69
2018-04-15T09:57:54.955Z,99560.56
2018-04-15T10:00:21.371Z,99560.23
2018-04-15T10:02:47.663Z,99561.27
2018-04-15T10:05:13.933Z,99566.84
2018-04-15T10:07:40.208Z,99575.72
2018-04-15T10:10:07.266Z,99589.98
2018-04-15T10:12:33.622Z,99575.31
2018-04-15T10:14:59.950Z,99574.55
2018-04-15T10:17:26.225Z,99583.65
2018-04-15T10:19:52.549Z,99578.59
2018-04-15T10:22:18.821Z,99584.06
2018-04-15T10:24:45.114Z,99575.97
2018-04-15T10:27:11.434Z,99578.45
2018-04-15T10:29:37.766Z,99574.06
2018-04-15T10:32:04.088Z,99568.10
2018-04-15T10:34:30.359Z,99570.37
2018-04-15T10:36:57.442Z,99563.69
2018-04-15T10:39:23.743Z,99564.36
2018-04-15T10:41:50.782Z,99561.95
2018-04-15T10:44:17.841Z,99560.97
2018-04-15T10:46:44.912Z,99563.92
2018-04-15T10:49:11.442Z,99555.31
2018-04-15T10:51:37.785Z,99554.59
2018-04-15T10:54:04.058Z,99550.98
2018-04-15T10:56:30.499Z,99546.50
2018-04-15T10:58:56.797Z,99546.23
2018-04-15T11:01:23.236Z,99550.20
2018-04-15T11:03:49.529Z,99548.95
2018-04-15T11:06:15.866Z,99542.86
2018-04-15T11:08:42.213Z,99535.80
2018-04-15T11:11:09.228Z,99533.94
2018-04-15T11:13:36.354Z,99531.92
2018-04-15T11:16:02.643Z,99530.72
2018-04-15T11:18:28.950Z,99518.77
2018-04-15T11:20:55.282Z,99520.28
2018-04-15T11:23:21.588Z,99521.90
2018-04-15T11:25:48.705Z,99529.79
2018-04-15T11:28:15.056Z,99524.80
2018-04-15T11:30:41.428Z,99525.54
2018-04-15T11:33:07.723Z,99516.48
2018-04-15T11:35:34.012Z,99523.81
2018-04-15T11:38:00.346Z,99523.90
2018-04-15T11:40:26.668Z,99516.37
2018-04-15T11:42:52.941Z,99524.79
2018-04-15T11:45:19.256Z,99517.98
2018-04-15T11:47:45.533Z,99519.55
2018-04-15T11:50:11.833Z,99520.77
2018-04-15T11:52:38.163Z,99500.02
2018-04-15T11:55:04.472Z,99513.77
2018-04-15T11:57:30.914Z,99513.87
2018-04-15T11:59:57.253Z,99508.57
2018-04-15T12:02:23.597Z,99509.72
2018-04-15T12:04:49.857Z,99507.98
2018-04-15T12:07:16.164Z,99502.10
2018-04-15T12:09:43.226Z,99493.87
2018-04-15T12:12:10.408Z,99493.58
2018-04-15T12:14:36.724Z,99486.73
2018-04-15T12:17:03.049Z,99484.42
2018-04-15T12:19:29.340Z,99475.81
2018-04-15T12:21:56.112Z,99479.62
2018-04-15T12:24:23.216Z,99483.88
2018-04-15T12:26:49.692Z,99477.18
2018-04-15T12:29:16.090Z,99480.11
2018-04-15T12:31:42.465Z,99474.91
2018-04-15T12:34:08.811Z,99471.62
2018-04-15T12:36:35.102Z,99471.56
2018-04-15T12:39:01.435Z,99484.61
2018-04-15T12:41:27.717Z,99481.70
2018-04-15T12:43:54.178Z,99489.18
2018-04-15T12:46:20.480Z,99490.60
2018-04-15T12:48:46.748Z,99485.91
2018-04-15T12:51:13.201Z,99487.31
2018-04-15T12:53:40.358Z,99480.63
2018-04-15T12:56:08.775Z,99474.40
2018-04-15T12:58:35.111Z,99474.80
2018-04-15T13:01:02.539Z,99474.05
2018-04-15T13:03:28.884Z,99457.84
2018-04-15T13:05:55.293Z,99458.59
2018-04-15T13:08:22.478Z,99453.69
2018-04-15T13:10:49.625Z,99455.32
2018-04-15T13:13:15.933Z,99450.19
2018-04-15T13:15:43.062Z,99452.58
2018-04-15T13:18:10.119Z,99446.98
2018-04-15T13:20:36.456Z,99458.06
2018-04-15T13:23:03.497Z,99454.23
2018-04-15T13:25:30.551Z,99453.09
2018-04-15T13:27:56.878Z,99443.42
2018-04-15T13:30:23.224Z,99451.05
2018-04-15T13:32:49.541Z,99454.31
2018-04-15T13:35:16.585Z,99446.96
2018-04-15T13:37:44.563Z,99441.95
2018-04-15T13:40:11.011Z,99431.40
2018-04-15T13:42:37.306Z,99421.41
2018-04-15T13:45:03.741Z,99412.13
2018-04-15T13:47:30.178Z,99408.41
2018-04-15T13:49:56.533Z,99415.81
2018-04-15T13:52:23.608Z,99401.69
2018-04-15T13:54:49.909Z,99399.14
2018-04-15T13:57:16.279Z,99395.69
2018-04-15T13:59:42.557Z,99393.40
2018-04-15T14:02:09.611Z,99384.81
2018-04-15T14:04:36.631Z,99389.42
2018-04-15T14:07:03.299Z,99379.64
2018-04-15T14:09:30.602Z,99380.13
2018-04-15T14:11:56.982Z,99377.82
2018-04-15T14:14:23.279Z,99369.06
2018-04-15T14:16:49.737Z,99376.22
2018-04-15T14:19:16.801Z,99368.44
2018-04-15T14:21:43.108Z,99369.58
2018-04-15T14:24:10.197Z,99368.28
2018-04-15T14:26:36.508Z,99372.62
2018-04-15T14:29:02.786Z,99372.41
2018-04-15T14:31:29.086Z,99383.91
2018-04-15T14:33:55.403Z,99380.08
2018-04-15T14:36:22.566Z,99375.50
2018-04-15T14:38:49.622Z,99355.57
2018-04-15T14:41:15.935Z,99337.53
2018-04-15T14:43:43.002Z,99336.01
2018-04-15T14:46:09.329Z,99332.63
2018-04-15T14:48:35.746Z,99331.42
2018-04-15T14:51:02.100Z,99318.84
2018-04-15T14:53:28.489Z,99318.14
2018-04-15T14:55:54.902Z,99323.33
2018-04-15T14:58:22.859Z,99319.63
2018-04-15T15:00:49.230Z,99309.30
2018-04-15T15:03:15.527Z,99306.27
2018-04-15T15:05:41.854Z,99306.09
2018-04-15T15:08:08.975Z,99303.80
2018-04-15T15:10:35.350Z,99307.73
2018-04-15T15:13:02.136Z,99305.30
2018-04-15T15:15:29.241Z,99299.69
2018-04-15T15:17:55.908Z,99302.91
2018-04-15T15:20:23.108Z,99297.06
2018-04-15T15:22:49.525Z,99301.61
2018-04-15T15:25:15.967Z,99309.78
2018-04-15T15:27:42.305Z,99305.97
2018-04-15T15:30:08.611Z,99298.01
2018-04-15T15:32:35.124Z,99293.39
2018-04-15T15:35:02.155Z,99293.45
2018-04-15T15:37:28.655Z,99292.84
2018-04-15T15:39:55.083Z,99296.67
2018-04-15T15:42:21.383Z,99292.37
2018-04-15T15:44:47.768Z,99291.44
2018-04-15T15:47:14.243Z,99291.30
2018-04-15T15:49:41.277Z,99290.23
2018-04-15T15:52:07.964Z,99294.00
2018-04-15T15:54:34.287Z,99295.95
2018-04-15T15:57:00.659Z,99291.65
2018-04-15T15:59:34.184Z,99291.38
2018-04-15T16:02:01.282Z,99296.62
2018-04-15T16:04:27.631Z,99301.46
2018-04-15T16:06:53.983Z,99301.89
2018-04-15T16:09:20.601Z,99308.84
2018-04-15T16:11:46.938Z,99313.19
2018-04-15T16:14:13.276Z,99307.63
2018-04-15T16:16:39.631Z,99311.16
2018-04-15T16:19:06.968Z,99305.92
2018-04-15T16:21:33.556Z,99311.70
2018-04-15T16:26:55.780Z,99299.76
2018-04-15T16:29:23.148Z,99297.16
2018-04-15T16:31:49.512Z,99290.95
2018-04-15T16:34:15.919Z,99281.76
2018-04-15T16:36:42.551Z,99268.03
2018-04-15T16:39:09.747Z,99255.00
2018-04-15T16:41:36.185Z,99237.70
2018-04-15T16:44:02.664Z,99244.91
2018-04-15T16:46:29.819Z,99238.08
2018-04-15T16:48:57.062Z,99244.95
2018-04-15T16:51:23.599Z,99250.80
2018-04-15T16:53:50.809Z,99250.70
2018-04-15T16:56:17.162Z,99258.50
2018-04-15T16:58:43.611Z,99255.52
2018-04-15T17:01:10.684Z,99255.32
2018-04-15T17:03:36.973Z,99256.39
2018-04-15T17:06:03.563Z,99249.88
2018-04-15T17:08:29.883Z,99238.86
2018-04-15T17:10:56.202Z,99241.48
2018-04-15T17:13:23.223Z,99243.28
2018-04-15T17:15:49.548Z,99239.39
2018-04-15T17:18:15.975Z,99244.19
2018-04-15T17:20:42.319Z,99237.13
2018-04-15T17:23:08.656Z,99250.23
2018-04-15T17:25:35.727Z,99253.61
2018-04-15T17:28:02.074Z,99250.72
2018-04-15T17:30:28.468Z,99252.73
2018-04-15T17:32:54.795Z,99257.72
2018-04-15T17:35:21.069Z,99253.78
2018-04-15T17:37:47.363Z,99260.02
2018-04-15T17:40:13.691Z,99263.45
2018-04-15T17:42:40.037Z,99260.34
2018-04-15T17:45:07.153Z,99271.88
2018-04-15T17:47:33.457Z,99268.87
2018-04-15T17:49:59.832Z,99270.20
2018-04-15T17:52:26.150Z,99272.61
2018-04-15T17:54:52.461Z,99284.77
2018-04-15T17:57:18.735Z,99281.37
2018-04-15T17:59:45.077Z,99286.03
2018-04-15T18:02:12.187Z,99286.39
2018-04-15T18:04:38.519Z,99289.75
2018-04-15T18:07:04.842Z,99299.20
2018-04-15T18:09:31.178Z,99298.56
2018-04-15T18:11:57.636Z,99283.41
2018-04-15T18:14:24.311Z,99290.84
2018-04-15T18:16:50.779Z,99295.23
2018-04-15T18:19:17.275Z,99300.24
2018-04-15T18:21:43.733Z,99306.27
2018-04-15T18:24:10.021Z,99303.20
2018-04-15T18:26:37.134Z,99309.11
2018-04-15T18:29:04.259Z,99320.70
2018-04-15T18:31:30.592Z,99317.75
2018-04-15T18:33:56.929Z,99316.81
2018-04-15T18:36:23.231Z,99312.35
2018-04-15T18:38:50.409Z,99300.70
2018-04-15T18:41:16.674Z,99303.45
2018-04-15T18:43:43.143Z,99306.26
2018-04-15T18:46:09.557Z,99319.19
2018-04-15T18:48:36.149Z,99313.25
2018-04-15T18:51:02.587Z,99303.45
2018-04-15T18:53:28.973Z,99313.34
2018-04-15T18:55:56.069Z,99314.17
2018-04-15T18:58:22.419Z,99303.58
2018-04-15T19:00:48.751Z,99304.27
2018-04-15T19:03:15.820Z,99310.72
2018-04-15T19:05:42.203Z,99304.55
2018-04-15T19:08:08.640Z,99313.52
2018-04-15T19:10:34.984Z,99316.56
2018-04-15T19:13:01.337Z,99327.86
2018-04-15T19:15:27.655Z,99327.63
2018-04-15T19:17:54.082Z,99319.46
2018-04-15T19:20:20.554Z,99314.86
2018-04-15T19:22:46.924Z,99319.11
2018-04-15T19:25:13.286Z,99324.72
2018-04-15T19:27:39.725Z,99326.58
2018-04-15T19:30:06.858Z,99324.09
2018-04-15T19:32:33.498Z,99323.67
2018-04-15T19:34:59.827Z,99317.03
2018-04-15T19:37:26.334Z,99318.06
2018-04-15T19:39:52.840Z,99324.08
2018-04-15T19:42:19.386Z,99319.75
2018-04-15T19:44:45.922Z,99321.16
2018-04-15T19:47:12.429Z,99314.70
2018-04-15T19:49:38.877Z,99307.74
2018-04-15T19:52:05.297Z,99315.13
2018-04-15T19:54:31.820Z,99312.71
2018-04-15T19:56:58.440Z,99306.72
2018-04-15T19:59:25.536Z,99316.89
2018-04-15T20:01:51.999Z,99302.41
2018-04-15T20:04:18.402Z,99304.09
2018-04-15T20:06:44.817Z,99315.00
2018-04-15T20:09:11.382Z,99317.98
2018-04-15T20:11:38.450Z,99307.58
2018-04-15T20:14:04.955Z,99286.58
2018-04-15T20:16:31.570Z,99293.09
2018-04-15T20:18:58.136Z,99300.87
2018-04-15T20:21:24.490Z,99289.05
2018-04-15T20:23:50.964Z,99282.23
2018-04-15T20:26:17.306Z,99293.09
2018-04-15T20:28:43.734Z,99289.66
2018-04-15T20:31:10.141Z,99284.21
2018-04-15T20:33:36.464Z,99280.73
2018-04-15T20:36:02.846Z,99282.06
2018-04-15T20:38:29.236Z,99285.48
2018-04-15T20:40:55.641Z,99286.47
2018-04-15T20:43:22.000Z,99276.55
2018-04-15T20:45:48.356Z,99271.91
2018-04-15T20:48:14.778Z,99270.81
2018-04-15T20:50:41.545Z,99276.91
2018-04-15T20:53:07.988Z,99272.10
2018-04-15T20:55:34.374Z,99271.36
2018-04-15T20:58:00.835Z,99269.25
2018-04-15T21:00:27.147Z,99265.34
2018-04-15T21:02:53.475Z,99267.14
2018-04-15T21:05:19.874Z,99259.03
2018-04-15T21:07:46.522Z,99260.63
2018-04-15T21:10:12.842Z,99255.74
2018-04-15T21:12:39.882Z,99269.41
2018-04-15T21:15:07.138Z,99271.16
2018-04-15T21:17:34.237Z,99273.89
2018-04-15T21:20:00.557Z,99270.63
2018-04-15T21:22:26.858Z,99271.08
2018-04-15T21:24:53.537Z,99270.47
2018-04-15T21:27:19.838Z,99260.89
2018-04-15T21:29:47.026Z,99258.13
2018-04-15T21:32:13.445Z,99267.59
2018-04-15T21:34:39.868Z,99279.60
2018-04-15T21:37:06.187Z,99277.53
2018-04-15T21:39:33.327Z,99276.56
2018-04-15T21:41:59.679Z,99280.62
2018-04-15T21:44:26.005Z,99280.54
2018-04-15T21:46:52.305Z,99280.30
2018-04-15T21:49:18.753Z,99274.44
2018-04-15T21:51:45.105Z,99280.06
2018-04-15T21:54:11.490Z,99285.20
2018-04-15T21:56:37.753Z,99273.12
2018-04-15T21:59:04.967Z,99277.73
2018-04-15T22:01:31.240Z,99277.26
2018-04-15T22:03:57.560Z,99273.84
2018-04-15T22:06:24.676Z,99276.43
2018-04-15T22:08:50.984Z,99281.39
2018-04-15T22:11:17.375Z,99284.09
2018-04-15T22:13:44.465Z,99282.18
2018-04-15T22:16:10.897Z,99278.25
2018-04-15T22:18:37.261Z,99277.26
2018-04-15T22:21:03.560Z,99284.20
2018-04-15T22:23:29.926Z,99286.10
2018-04-15T22:25:56.253Z,99299.07
2018-04-15T22:28:22.556Z,99286.83
2018-04-15T22:30:48.922Z,99290.39
2018-04-15T22:33:15.712Z,99288.55
2018-04-15T22:35:42.227Z,99289.38
2018-04-15T22:38:09.276Z,99283.41
2018-04-15T22:40:36.341Z,99279.77
2018-04-15T22:43:02.648Z,99271.57
2018-04-15T22:45:29.004Z,99260.98
2018-04-15T22:48:01.699Z,99264.37
2018-04-15T22:50:34.312Z,99258.33
2018-04-15T22:53:01.053Z,99245.31
2018-04-15T22:55:27.465Z,99243.12
2018-04-15T22:57:53.719Z,99260.05
2018-04-15T23:00:20.107Z,99259.98
2018-04-15T23:02:46.418Z,99255.18
2018-04-15T23:05:13.678Z,99257.36
2018-04-15T23:07:40.064Z,99262.44
2018-04-15T23:10:06.628Z,99258.91
2018-04-15T23:12:33.773Z,99256.78
2018-04-15T23:15:00.893Z,99262.92
2018-04-15T23:17:27.167Z,99260.77
2018-04-15T23:19:54.295Z,99247.47
2018-04-15T23:22:20.609Z,99252.61
2018-04-15T23:24:47.018Z,99252.45
2018-04-15T23:27:13.320Z,99248.88
2018-04-15T23:29:39.692Z,99242.47
2018-04-15T23:32:06.002Z,99244.89
2018-04-15T23:34:32.320Z,99244.64
2018-04-15T23:36:58.643Z,99254.45
2018-04-15T23:39:24.987Z,99253.20
2018-04-15T23:41:51.276Z,99262.70
2018-04-15T23:44:17.647Z,99257.82
2018-04-15T23:46:44.015Z,99258.45
2018-04-15T23:49:10.332Z,99250.77
2018-04-15T23:51:36.601Z,99253.06
2018-04-15T23:54:02.903Z,99258.25
2018-04-15T23:56:29.165Z,99250.30
2018-04-15T23:58:55.429Z,99243.44
